createdAt,value
2018-11-04T00:00:33.000Z,1021.38
2018-11-04T00:01:33.441Z,1021.36
2018-11-04T00:02:32.894Z,1021.35
2018-11-04T00:03:33.072Z,1021.37
2018-11-04T00:04:32.948Z,1021.34
2018-11-04T00:05:33.071Z,1021.34
2018-11-04T00:06:32.961Z,1021.31
2018-11-04T00:07:33.099Z,1021.3
2018-11-04T00:08:32.912Z,1021.29
2018-11-04T00:09:33.116Z,1021.29
2018-11-04T00:10:32.992Z,1021.26
2018-11-04T00:11:33.082Z,1021.23
2018-11-04T00:12:33.226Z,1021.24
2018-11-04T00:13:32.940Z,1021.23
2018-11-04T00:14:33.087Z,1021.2
2018-11-04T00:15:32.979Z,1021.21
2018-11-04T00:16:33.171Z,1021.18
2018-11-04T00:17:32.984Z,1021.14
2018-11-04T00:18:33.114Z,1021.14
2018-11-04T00:19:32.991Z,1021.15
2018-11-04T00:20:33.126Z,1021.11
2018-11-04T00:21:33.011Z,1021.12
2018-11-04T00:22:33.083Z,1021.07
2018-11-04T00:23:33.235Z,1021.12
2018-11-04T00:24:32.883Z,1021.09
2018-11-04T00:25:33.316Z,1021.08
2018-11-04T00:26:32.998Z,1021.01
2018-11-04T00:27:33.384Z,1021.05
2018-11-04T00:28:33.186Z,1021.04
2018-11-04T00:29:33.133Z,1021.01
2018-11-04T00:30:33.040Z,1020.97
2018-11-04T00:31:33.240Z,1021.02
2018-11-04T00:32:33.224Z,1020.98
2018-11-04T00:33:33.000Z,1020.95
2018-11-04T00:34:33.179Z,1020.96
2018-11-04T00:35:33.070Z,1020.92
2018-11-04T00:36:33.234Z,1020.93
2018-11-04T00:37:32.970Z,1020.94
2018-11-04T00:38:33.146Z,1020.87
2018-11-04T00:39:33.041Z,1020.9
2018-11-04T00:40:33.251Z,1020.9
2018-11-04T00:41:32.976Z,1020.89
2018-11-04T00:42:33.116Z,1020.86
2018-11-04T00:43:33.232Z,1020.88
2018-11-04T00:44:33.147Z,1020.86
2018-11-04T00:45:33.309Z,1020.8
2018-11-04T00:46:32.909Z,1020.82
2018-11-04T00:47:32.847Z,1020.8
2018-11-04T00:48:33.377Z,1020.84
2018-11-04T00:49:33.164Z,1020.84
2018-11-04T00:50:33.012Z,1020.81
2018-11-04T00:51:33.313Z,1020.83
2018-11-04T00:52:32.991Z,1020.77
2018-11-04T00:53:33.239Z,1020.78
2018-11-04T00:54:32.973Z,1020.75
2018-11-04T00:55:33.032Z,1020.77
2018-11-04T00:56:33.110Z,1020.79
2018-11-04T00:57:33.041Z,1020.73
2018-11-04T00:58:33.240Z,1020.77
2018-11-04T00:59:33.019Z,1020.71
2018-11-04T01:00:32.853Z,1020.71
2018-11-04T01:01:33.387Z,1020.69
2018-11-04T01:02:33.293Z,1020.64
2018-11-04T01:03:32.929Z,1020.55
2018-11-04T01:04:33.340Z,1020.57
2018-11-04T01:05:33.297Z,1020.48
2018-11-04T01:06:33.047Z,1020.55
2018-11-04T01:07:33.016Z,1020.53
2018-11-04T01:08:32.843Z,1020.5
2018-11-04T01:09:33.080Z,1020.53
2018-11-04T01:10:33.053Z,1020.5
2018-11-04T01:11:33.032Z,1020.52
2018-11-04T01:12:33.280Z,1020.5
2018-11-04T01:13:33.139Z,1020.47
2018-11-04T01:14:33.079Z,1020.45
2018-11-04T01:15:32.839Z,1020.43
2018-11-04T01:16:33.337Z,1020.44
2018-11-04T01:17:33.146Z,1020.4
2018-11-04T01:18:32.948Z,1020.38
2018-11-04T01:19:33.213Z,1020.41
2018-11-04T01:20:33.099Z,1020.39
2018-11-04T01:21:33.143Z,1020.36
2018-11-04T01:22:32.923Z,1020.35
2018-11-04T01:23:33.277Z,1020.27
2018-11-04T01:24:33.507Z,1020.32
2018-11-04T01:25:33.023Z,1020.31
2018-11-04T01:26:32.868Z,1020.28
2018-11-04T01:27:33.199Z,1020.29
2018-11-04T01:28:33.082Z,1020.28
2018-11-04T01:29:32.999Z,1020.29
2018-11-04T01:30:32.985Z,1020.21
2018-11-04T01:31:32.977Z,1020.2
2018-11-04T01:32:33.034Z,1020.19
2018-11-04T01:33:32.951Z,1020.21
2018-11-04T01:34:33.096Z,1020.13
2018-11-04T01:35:32.979Z,1020.09
2018-11-04T01:36:32.990Z,1020.12
2018-11-04T01:37:32.926Z,1020.11
2018-11-04T01:38:33.015Z,1020.11
2018-11-04T01:39:32.930Z,1020.16
2018-11-04T01:40:33.309Z,1020.06
2018-11-04T01:41:32.860Z,1020.13
2018-11-04T01:42:33.008Z,1020.11
2018-11-04T01:43:33.091Z,1020.12
2018-11-04T01:44:32.928Z,1020.08
2018-11-04T01:45:33.386Z,1020.13
2018-11-04T01:46:32.918Z,1020.06
2018-11-04T01:47:33.020Z,1020.03
2018-11-04T01:48:33.191Z,1020.04
2018-11-04T01:49:33.090Z,1020.01
2018-11-04T01:50:32.944Z,1020.02
2018-11-04T01:51:32.948Z,1020.02
2018-11-04T01:52:32.878Z,1020.02
2018-11-04T01:53:33.277Z,1020.02
2018-11-04T01:54:33.080Z,1019.93
2018-11-04T01:55:33.138Z,1019.96
2018-11-04T01:56:33.450Z,1019.92
2018-11-04T01:57:32.994Z,1019.93
2018-11-04T01:58:33.109Z,1019.91
2018-11-04T01:59:32.921Z,1019.88
2018-11-04T02:00:33.130Z,1019.85
2018-11-04T02:01:33.182Z,1019.87
2018-11-04T02:02:33.164Z,1019.79
2018-11-04T02:03:33.110Z,1019.82
2018-11-04T02:04:33.323Z,1019.84
2018-11-04T02:05:33.168Z,1019.79
2018-11-04T02:06:33.038Z,1019.74
2018-11-04T02:07:33.130Z,1019.75
2018-11-04T02:08:33.009Z,1019.75
2018-11-04T02:09:33.077Z,1019.7
2018-11-04T02:10:32.995Z,1019.7
2018-11-04T02:11:33.161Z,1019.68
2018-11-04T02:12:33.016Z,1019.67
2018-11-04T02:13:33.272Z,1019.64
2018-11-04T02:14:32.822Z,1019.62
2018-11-04T02:15:33.388Z,1019.64
2018-11-04T02:16:32.967Z,1019.58
2018-11-04T02:17:32.979Z,1019.56
2018-11-04T02:18:33.207Z,1019.56
2018-11-04T02:19:33.057Z,1019.58
2018-11-04T02:20:33.379Z,1019.53
2018-11-04T02:21:33.112Z,1019.47
2018-11-04T02:22:33.703Z,1019.48
2018-11-04T02:23:33.082Z,1019.47
2018-11-04T02:24:33.098Z,1019.45
2018-11-04T02:25:32.852Z,1019.41
2018-11-04T02:26:33.431Z,1019.42
2018-11-04T02:27:32.995Z,1019.39
2018-11-04T02:28:33.263Z,1019.36
2018-11-04T02:29:33.001Z,1019.35
2018-11-04T02:30:33.691Z,1019.38
2018-11-04T02:31:33.349Z,1019.32
2018-11-04T02:32:33.052Z,1019.36
2018-11-04T02:33:33.529Z,1019.38
2018-11-04T02:34:32.995Z,1019.34
2018-11-04T02:35:33.016Z,1019.3
2018-11-04T02:36:32.827Z,1019.3
2018-11-04T02:37:33.083Z,1019.3
2018-11-04T02:38:33.305Z,1019.29
2018-11-04T02:39:33.000Z,1019.26
2018-11-04T02:40:33.180Z,1019.28
2018-11-04T02:41:33.227Z,1019.28
2018-11-04T02:42:33.076Z,1019.26
2018-11-04T02:43:33.047Z,1019.29
2018-11-04T02:44:32.834Z,1019.23
2018-11-04T02:45:33.055Z,1019.26
2018-11-04T02:46:33.264Z,1019.25
2018-11-04T02:47:32.896Z,1019.3
2018-11-04T02:48:33.644Z,1019.26
2018-11-04T02:49:32.900Z,1019.29
2018-11-04T02:50:33.145Z,1019.26
2018-11-04T02:51:33.053Z,1019.33
2018-11-04T02:52:33.402Z,1019.24
2018-11-04T02:53:33.387Z,1019.25
2018-11-04T02:54:33.012Z,1019.24
2018-11-04T02:55:32.929Z,1019.24
2018-11-04T02:56:33.313Z,1019.25
2018-11-04T02:57:33.316Z,1019.22
2018-11-04T02:58:32.862Z,1019.22
2018-11-04T02:59:32.818Z,1019.22
2018-11-04T03:00:33.620Z,1019.23
2018-11-04T03:01:33.050Z,1019.23
2018-11-04T03:02:32.947Z,1019.19
2018-11-04T03:03:33.060Z,1019.22
2018-11-04T03:04:32.977Z,1019.21
2018-11-04T03:05:32.986Z,1019.21
2018-11-04T03:06:32.811Z,1019.18
2018-11-04T03:07:33.074Z,1019.14
2018-11-04T03:08:32.906Z,1019.19
2018-11-04T03:09:32.863Z,1019.08
2018-11-04T03:10:32.895Z,1019.15
2018-11-04T03:11:32.885Z,1019.07
2018-11-04T03:12:33.067Z,1019.07
2018-11-04T03:13:32.959Z,1019.08
2018-11-04T03:14:33.128Z,1019.04
2018-11-04T03:15:32.963Z,1019.1
2018-11-04T03:16:33.028Z,1019.05
2018-11-04T03:17:32.903Z,1019.07
2018-11-04T03:18:33.220Z,1019.1
2018-11-04T03:19:33.046Z,1019.08
2018-11-04T03:20:32.818Z,1019.03
2018-11-04T03:21:33.309Z,1019.04
2018-11-04T03:22:33.131Z,1019.01
2018-11-04T03:23:33.068Z,1019.04
2018-11-04T03:24:33.283Z,1019
2018-11-04T03:25:33.408Z,1018.98
2018-11-04T03:26:33.291Z,1018.96
2018-11-04T03:27:33.094Z,1018.93
2018-11-04T03:28:33.053Z,1018.95
2018-11-04T03:29:33.299Z,1018.98
2018-11-04T03:30:32.913Z,1018.93
2018-11-04T03:31:32.987Z,1018.99
2018-11-04T03:32:33.128Z,1018.97
2018-11-04T03:33:32.980Z,1018.96
2018-11-04T03:34:32.795Z,1018.92
2018-11-04T03:35:33.021Z,1018.94
2018-11-04T03:36:33.082Z,1018.98
2018-11-04T03:37:33.092Z,1018.9
2018-11-04T03:38:33.185Z,1018.92
2018-11-04T03:39:32.882Z,1018.88
2018-11-04T03:40:33.063Z,1018.89
2018-11-04T03:41:33.214Z,1018.88
2018-11-04T03:42:32.859Z,1018.89
2018-11-04T03:43:32.824Z,1018.88
2018-11-04T03:44:33.260Z,1018.89
2018-11-04T03:45:32.900Z,1018.9
2018-11-04T03:46:33.208Z,1018.88
2018-11-04T03:47:32.787Z,1018.85
2018-11-04T03:48:33.324Z,1018.86
2018-11-04T03:49:33.075Z,1018.91
2018-11-04T03:50:32.909Z,1018.92
2018-11-04T03:51:33.369Z,1018.92
2018-11-04T03:52:33.187Z,1018.91
2018-11-04T03:53:32.985Z,1018.92
2018-11-04T03:54:32.995Z,1018.87
2018-11-04T03:55:33.297Z,1018.87
2018-11-04T03:56:32.885Z,1018.87
2018-11-04T03:57:33.048Z,1018.85
2018-11-04T03:58:32.858Z,1018.86
2018-11-04T03:59:33.030Z,1018.92
2018-11-04T04:00:32.997Z,1018.87
2018-11-04T04:01:32.993Z,1018.93
2018-11-04T04:02:33.206Z,1018.89
2018-11-04T04:03:33.264Z,1018.89
2018-11-04T04:04:32.791Z,1018.89
2018-11-04T04:05:33.208Z,1018.85
2018-11-04T04:06:33.129Z,1018.83
2018-11-04T04:07:33.225Z,1018.82
2018-11-04T04:08:33.160Z,1018.8
2018-11-04T04:09:33.066Z,1018.8
2018-11-04T04:10:33.099Z,1018.82
2018-11-04T04:11:32.872Z,1018.81
2018-11-04T04:12:33.211Z,1018.79
2018-11-04T04:13:33.411Z,1018.8
2018-11-04T04:14:33.233Z,1018.76
2018-11-04T04:15:32.818Z,1018.83
2018-11-04T04:16:33.221Z,1018.82
2018-11-04T04:17:33.093Z,1018.81
2018-11-04T04:18:33.103Z,1018.76
2018-11-04T04:19:33.285Z,1018.71
2018-11-04T04:20:32.835Z,1018.74
2018-11-04T04:21:33.012Z,1018.71
2018-11-04T04:22:33.061Z,1018.67
2018-11-04T04:23:33.011Z,1018.67
2018-11-04T04:24:32.998Z,1018.72
2018-11-04T04:25:33.069Z,1018.7
2018-11-04T04:26:32.900Z,1018.7
2018-11-04T04:27:32.891Z,1018.7
2018-11-04T04:28:33.210Z,1018.68
2018-11-04T04:29:33.207Z,1018.68
2018-11-04T04:30:33.165Z,1018.69
2018-11-04T04:31:32.884Z,1018.69
2018-11-04T04:32:32.970Z,1018.61
2018-11-04T04:33:33.090Z,1018.65
2018-11-04T04:34:32.993Z,1018.65
2018-11-04T04:35:32.811Z,1018.67
2018-11-04T04:36:33.005Z,1018.6
2018-11-04T04:37:32.783Z,1018.64
2018-11-04T04:38:32.867Z,1018.65
2018-11-04T04:39:33.043Z,1018.59
2018-11-04T04:40:33.404Z,1018.57
2018-11-04T04:41:32.973Z,1018.55
2018-11-04T04:42:32.826Z,1018.5
2018-11-04T04:43:33.057Z,1018.48
2018-11-04T04:44:33.225Z,1018.51
2018-11-04T04:45:33.024Z,1018.53
2018-11-04T04:46:32.847Z,1018.49
2018-11-04T04:47:33.063Z,1018.54
2018-11-04T04:48:33.172Z,1018.57
2018-11-04T04:49:33.048Z,1018.53
2018-11-04T04:50:32.826Z,1018.53
2018-11-04T04:51:33.062Z,1018.52
2018-11-04T04:52:32.844Z,1018.52
2018-11-04T04:53:33.243Z,1018.5
2018-11-04T04:54:33.313Z,1018.53
2018-11-04T04:55:33.108Z,1018.47
2018-11-04T04:56:33.094Z,1018.52
2018-11-04T04:57:33.133Z,1018.53
2018-11-04T04:58:33.135Z,1018.49
2018-11-04T04:59:33.294Z,1018.5
2018-11-04T05:00:33.247Z,1018.51
2018-11-04T05:01:32.898Z,1018.46
2018-11-04T05:02:33.031Z,1018.47
2018-11-04T05:03:33.255Z,1018.46
2018-11-04T05:04:32.999Z,1018.44
2018-11-04T05:05:33.466Z,1018.44
2018-11-04T05:06:33.024Z,1018.41
2018-11-04T05:07:32.811Z,1018.44
2018-11-04T05:08:32.873Z,1018.4
2018-11-04T05:09:33.035Z,1018.41
2018-11-04T05:10:33.177Z,1018.39
2018-11-04T05:11:33.020Z,1018.4
2018-11-04T05:12:32.865Z,1018.42
2018-11-04T05:13:33.024Z,1018.41
2018-11-04T05:14:32.793Z,1018.39
2018-11-04T05:15:33.279Z,1018.34
2018-11-04T05:16:32.809Z,1018.38
2018-11-04T05:17:33.016Z,1018.36
2018-11-04T05:18:33.280Z,1018.29
2018-11-04T05:19:33.030Z,1018.25
2018-11-04T05:20:33.328Z,1018.31
2018-11-04T05:21:32.974Z,1018.27
2018-11-04T05:22:33.171Z,1018.33
2018-11-04T05:23:32.806Z,1018.26
2018-11-04T05:24:33.315Z,1018.26
2018-11-04T05:25:33.188Z,1018.26
2018-11-04T05:26:32.889Z,1018.27
2018-11-04T05:27:32.759Z,1018.27
2018-11-04T05:28:33.295Z,1018.25
2018-11-04T05:29:32.923Z,1018.26
2018-11-04T05:30:32.890Z,1018.27
2018-11-04T05:31:33.249Z,1018.3
2018-11-04T05:32:32.761Z,1018.28
2018-11-04T05:33:32.952Z,1018.28
2018-11-04T05:34:32.838Z,1018.27
2018-11-04T05:35:33.125Z,1018.25
2018-11-04T05:36:33.095Z,1018.23
2018-11-04T05:37:32.966Z,1018.22
2018-11-04T05:38:32.836Z,1018.2
2018-11-04T05:39:33.006Z,1018.19
2018-11-04T05:40:32.853Z,1018.21
2018-11-04T05:41:33.173Z,1018.2
2018-11-04T05:42:32.965Z,1018.15
2018-11-04T05:43:33.135Z,1018.18
2018-11-04T05:44:32.804Z,1018.15
2018-11-04T05:45:33.496Z,1018.18
2018-11-04T05:46:32.944Z,1018.17
2018-11-04T05:47:33.095Z,1018.19
2018-11-04T05:48:33.112Z,1018.23
2018-11-04T05:49:33.251Z,1018.24
2018-11-04T05:50:33.122Z,1018.26
2018-11-04T05:51:32.945Z,1018.23
2018-11-04T05:52:33.137Z,1018.25
2018-11-04T05:53:33.714Z,1018.2
2018-11-04T05:54:33.067Z,1018.24
2018-11-04T05:55:32.900Z,1018.28
2018-11-04T05:56:32.959Z,1018.26
2018-11-04T05:57:32.915Z,1018.18
2018-11-04T05:58:32.977Z,1018.23
2018-11-04T05:59:32.933Z,1018.25
2018-11-04T06:00:33.035Z,1018.25
2018-11-04T06:01:32.778Z,1018.25
2018-11-04T06:02:32.932Z,1018.27
2018-11-04T06:03:32.770Z,1018.25
2018-11-04T06:04:32.972Z,1018.22
2018-11-04T06:05:32.722Z,1018.24
2018-11-04T06:06:32.893Z,1018.21
2018-11-04T06:07:33.029Z,1018.23
2018-11-04T06:08:32.923Z,1018.22
2018-11-04T06:09:32.973Z,1018.24
2018-11-04T06:10:32.853Z,1018.21
2018-11-04T06:11:32.909Z,1018.25
2018-11-04T06:12:32.772Z,1018.19
2018-11-04T06:13:32.971Z,1018.19
2018-11-04T06:14:32.876Z,1018.19
2018-11-04T06:15:32.849Z,1018.18
2018-11-04T06:16:32.733Z,1018.19
2018-11-04T06:17:32.826Z,1018.21
2018-11-04T06:18:32.935Z,1018.2
2018-11-04T06:19:33.298Z,1018.21
2018-11-04T06:20:32.922Z,1018.21
2018-11-04T06:21:33.021Z,1018.22
2018-11-04T06:22:33.023Z,1018.17
2018-11-04T06:23:33.211Z,1018.16
2018-11-04T06:24:33.058Z,1018.17
2018-11-04T06:25:32.934Z,1018.14
2018-11-04T06:26:32.837Z,1018.16
2018-11-04T06:27:32.864Z,1018.21
2018-11-04T06:28:33.052Z,1018.2
2018-11-04T06:29:33.151Z,1018.19
2018-11-04T06:30:32.957Z,1018.15
2018-11-04T06:31:32.924Z,1018.19
2018-11-04T06:32:32.783Z,1018.2
2018-11-04T06:33:32.834Z,1018.15
2018-11-04T06:34:33.320Z,1018.16
2018-11-04T06:35:32.968Z,1018.19
2018-11-04T06:36:33.080Z,1018.17
2018-11-04T06:37:32.798Z,1018.18
2018-11-04T06:38:32.928Z,1018.13
2018-11-04T06:39:33.122Z,1018.18
2018-11-04T06:40:32.885Z,1018.17
2018-11-04T06:41:33.252Z,1018.11
2018-11-04T06:42:32.930Z,1018.09
2018-11-04T06:43:33.097Z,1018.1
2018-11-04T06:44:32.834Z,1018.12
2018-11-04T06:45:33.078Z,1018.16
2018-11-04T06:46:33.219Z,1018.16
2018-11-04T06:47:33.614Z,1018.15
2018-11-04T06:48:32.865Z,1018.09
2018-11-04T06:49:32.638Z,1018.1
2018-11-04T06:50:32.922Z,1018.12
2018-11-04T06:51:32.909Z,1018.09
2018-11-04T06:52:32.762Z,1018.11
2018-11-04T06:53:33.364Z,1018.09
2018-11-04T06:54:32.949Z,1018.16
2018-11-04T06:55:32.851Z,1018.17
2018-11-04T06:56:32.721Z,1018.21
2018-11-04T06:57:32.932Z,1018.25
2018-11-04T06:58:33.262Z,1018.21
2018-11-04T06:59:33.216Z,1018.2
2018-11-04T07:00:32.622Z,1018.17
2018-11-04T07:01:33.080Z,1018.23
2018-11-04T07:02:32.942Z,1018.16
2018-11-04T07:03:32.734Z,1018.23
2018-11-04T07:04:32.977Z,1018.23
2018-11-04T07:05:32.746Z,1018.19
2018-11-04T07:06:33.079Z,1018.19
2018-11-04T07:07:32.733Z,1018.2
2018-11-04T07:08:32.957Z,1018.19
2018-11-04T07:09:33.055Z,1018.24
2018-11-04T07:10:32.763Z,1018.24
2018-11-04T07:11:32.968Z,1018.21
2018-11-04T07:12:33.030Z,1018.23
2018-11-04T07:13:32.912Z,1018.24
2018-11-04T07:14:32.878Z,1018.26
2018-11-04T07:15:33.483Z,1018.28
2018-11-04T07:16:32.943Z,1018.3
2018-11-04T07:17:33.006Z,1018.26
2018-11-04T07:18:32.992Z,1018.26
2018-11-04T07:19:32.884Z,1018.24
2018-11-04T07:20:33.695Z,1018.31
2018-11-04T07:21:32.968Z,1018.29
2018-11-04T07:22:32.731Z,1018.27
2018-11-04T07:23:33.034Z,1018.29
2018-11-04T07:24:33.083Z,1018.31
2018-11-04T07:25:33.172Z,1018.26
2018-11-04T07:26:33.272Z,1018.33
2018-11-04T07:27:32.925Z,1018.33
2018-11-04T07:28:32.858Z,1018.33
2018-11-04T07:29:32.713Z,1018.26
2018-11-04T07:30:32.894Z,1018.27
2018-11-04T07:31:32.894Z,1018.25
2018-11-04T07:32:32.877Z,1018.26
2018-11-04T07:33:32.710Z,1018.26
2018-11-04T07:34:32.832Z,1018.3
2018-11-04T07:35:32.953Z,1018.32
2018-11-04T07:36:32.817Z,1018.34
2018-11-04T07:37:33.153Z,1018.37
2018-11-04T07:38:32.793Z,1018.31
2018-11-04T07:39:33.052Z,1018.32
2018-11-04T07:40:32.943Z,1018.34
2018-11-04T07:41:33.115Z,1018.37
2018-11-04T07:42:32.786Z,1018.39
2018-11-04T07:43:32.887Z,1018.42
2018-11-04T07:44:32.769Z,1018.4
2018-11-04T07:45:32.897Z,1018.38
2018-11-04T07:46:33.048Z,1018.31
2018-11-04T07:47:32.794Z,1018.33
2018-11-04T07:48:32.949Z,1018.3
2018-11-04T07:49:32.800Z,1018.25
2018-11-04T07:50:33.162Z,1018.28
2018-11-04T07:51:33.280Z,1018.26
2018-11-04T07:52:32.871Z,1018.32
2018-11-04T07:53:32.953Z,1018.27
2018-11-04T07:54:33.067Z,1018.25
2018-11-04T07:55:32.687Z,1018.24
2018-11-04T07:56:32.865Z,1018.26
2018-11-04T07:57:32.970Z,1018.26
2018-11-04T07:58:33.238Z,1018.24
2018-11-04T07:59:33.079Z,1018.24
2018-11-04T08:00:32.833Z,1018.24
2018-11-04T08:01:32.994Z,1018.27
2018-11-04T08:02:32.778Z,1018.28
2018-11-04T08:03:33.283Z,1018.23
2018-11-04T08:04:33.700Z,1018.17
2018-11-04T08:05:32.798Z,1018.18
2018-11-04T08:06:32.849Z,1018.14
2018-11-04T08:07:32.905Z,1018.15
2018-11-04T08:08:33.145Z,1018.19
2018-11-04T08:09:32.931Z,1018.15
2018-11-04T08:10:33.017Z,1018.16
2018-11-04T08:11:32.899Z,1018.12
2018-11-04T08:12:33.072Z,1018.1
2018-11-04T08:13:33.067Z,1018.05
2018-11-04T08:14:32.951Z,1018.15
2018-11-04T08:15:32.732Z,1018.16
2018-11-04T08:16:32.993Z,1018.16
2018-11-04T08:17:32.938Z,1018.2
2018-11-04T08:18:32.788Z,1018.24
2018-11-04T08:19:33.365Z,1018.22
2018-11-04T08:20:32.913Z,1018.18
2018-11-04T08:21:33.159Z,1018.15
2018-11-04T08:22:32.911Z,1018.16
2018-11-04T08:23:32.896Z,1018.2
2018-11-04T08:24:32.715Z,1018.22
2018-11-04T08:25:33.241Z,1018.23
2018-11-04T08:26:33.223Z,1018.23
2018-11-04T08:27:33.103Z,1018.21
2018-11-04T08:28:32.692Z,1018.15
2018-11-04T08:29:32.799Z,1018.16
2018-11-04T08:30:33.284Z,1018.18
2018-11-04T08:31:33.008Z,1018.16
2018-11-04T08:32:33.536Z,1018.12
2018-11-04T08:33:33.066Z,1018.17
2018-11-04T08:34:32.875Z,1018.19
2018-11-04T08:35:32.814Z,1018.2
2018-11-04T08:36:32.935Z,1018.22
2018-11-04T08:37:33.039Z,1018.24
2018-11-04T08:38:32.944Z,1018.19
2018-11-04T08:39:33.032Z,1018.12
2018-11-04T08:40:33.680Z,1018.15
2018-11-04T08:41:33.188Z,1018.17
2018-11-04T08:42:32.901Z,1018.15
2018-11-04T08:43:32.934Z,1018.19
2018-11-04T08:44:32.870Z,1018.2
2018-11-04T08:45:33.029Z,1018.19
2018-11-04T08:46:33.002Z,1018.22
2018-11-04T08:47:33.141Z,1018.18
2018-11-04T08:48:32.878Z,1018.16
2018-11-04T08:49:33.243Z,1018.22
2018-11-04T08:50:32.669Z,1018.18
2018-11-04T08:51:32.930Z,1018.17
2018-11-04T08:52:33.172Z,1018.09
2018-11-04T08:53:32.836Z,1018.12
2018-11-04T08:54:33.072Z,1018.1
2018-11-04T08:55:32.750Z,1018.1
2018-11-04T08:56:32.859Z,1018.1
2018-11-04T08:57:32.991Z,1018.11
2018-11-04T08:58:33.054Z,1018.09
2018-11-04T08:59:32.750Z,1018.09
2018-11-04T09:00:32.815Z,1018.09
2018-11-04T09:01:33.057Z,1018.11
2018-11-04T09:02:32.883Z,1018.1
2018-11-04T09:03:33.167Z,1018.07
2018-11-04T09:04:32.737Z,1018.08
2018-11-04T09:05:32.940Z,1018.03
2018-11-04T09:06:33.329Z,1018.08
2018-11-04T09:07:32.803Z,1018.09
2018-11-04T09:08:32.728Z,1018.09
2018-11-04T09:09:32.918Z,1018.06
2018-11-04T09:10:32.832Z,1018.1
2018-11-04T09:11:32.807Z,1018.01
2018-11-04T09:12:32.652Z,1017.95
2018-11-04T09:13:32.807Z,1017.94
2018-11-04T09:14:32.885Z,1017.97
2018-11-04T09:15:32.746Z,1017.91
2018-11-04T09:16:32.902Z,1017.95
2018-11-04T09:17:32.740Z,1017.94
2018-11-04T09:18:32.962Z,1017.93
2018-11-04T09:19:32.761Z,1017.86
2018-11-04T09:20:32.884Z,1017.84
2018-11-04T09:21:32.940Z,1017.84
2018-11-04T09:22:33.250Z,1017.87
2018-11-04T09:23:32.804Z,1017.83
2018-11-04T09:24:32.794Z,1017.82
2018-11-04T09:25:32.954Z,1017.78
2018-11-04T09:26:32.997Z,1017.71
2018-11-04T09:27:33.218Z,1017.73
2018-11-04T09:28:32.733Z,1017.71
2018-11-04T09:29:32.812Z,1017.71
2018-11-04T09:30:32.744Z,1017.74
2018-11-04T09:31:33.235Z,1017.76
2018-11-04T09:32:32.802Z,1017.74
2018-11-04T09:33:33.129Z,1017.75
2018-11-04T09:34:33.216Z,1017.76
2018-11-04T09:35:34.067Z,1017.78
2018-11-04T09:36:33.498Z,1017.77
2018-11-04T09:37:32.873Z,1017.79
2018-11-04T09:38:33.034Z,1017.78
2018-11-04T09:39:32.781Z,1017.76
2018-11-04T09:40:32.742Z,1017.76
2018-11-04T09:41:32.981Z,1017.75
2018-11-04T09:42:32.960Z,1017.78
2018-11-04T09:43:32.744Z,1017.82
2018-11-04T09:44:32.968Z,1017.77
2018-11-04T09:45:33.700Z,1017.77
2018-11-04T09:46:32.921Z,1017.71
2018-11-04T09:47:33.040Z,1017.66
2018-11-04T09:48:32.767Z,1017.68
2018-11-04T09:49:33.139Z,1017.66
2018-11-04T09:50:33.172Z,1017.66
2018-11-04T09:51:32.984Z,1017.63
2018-11-04T09:52:32.852Z,1017.6
2018-11-04T09:53:33.254Z,1017.61
2018-11-04T09:54:32.699Z,1017.57
2018-11-04T09:55:32.922Z,1017.62
2018-11-04T09:56:33.595Z,1017.59
2018-11-04T09:57:33.108Z,1017.58
2018-11-04T09:58:32.866Z,1017.6
2018-11-04T09:59:32.878Z,1017.57
2018-11-04T10:00:32.660Z,1017.54
2018-11-04T10:01:32.788Z,1017.49
2018-11-04T10:02:33.397Z,1017.49
2018-11-04T10:03:33.020Z,1017.48
2018-11-04T10:04:32.964Z,1017.47
2018-11-04T10:05:32.945Z,1017.45
2018-11-04T10:06:32.916Z,1017.47
2018-11-04T10:07:33.300Z,1017.4
2018-11-04T10:08:33.028Z,1017.42
2018-11-04T10:09:32.935Z,1017.34
2018-11-04T10:10:32.874Z,1017.34
2018-11-04T10:11:32.781Z,1017.37
2018-11-04T10:12:32.954Z,1017.39
2018-11-04T10:13:32.834Z,1017.35
2018-11-04T10:14:32.920Z,1017.32
2018-11-04T10:15:32.931Z,1017.31
2018-11-04T10:16:33.060Z,1017.34
2018-11-04T10:17:31.072Z,1017.34
2018-11-04T10:18:31.352Z,1017.31
2018-11-04T10:19:31.852Z,1017.31
2018-11-04T10:20:32.705Z,1017.32
2018-11-04T10:21:31.217Z,1017.28
2018-11-04T10:22:30.966Z,1017.3
2018-11-04T10:23:31.212Z,1017.26
2018-11-04T10:24:31.060Z,1017.28
2018-11-04T10:25:31.337Z,1017.22
2018-11-04T10:26:31.155Z,1017.15
2018-11-04T10:27:31.264Z,1017.17
2018-11-04T10:28:31.374Z,1017.16
2018-11-04T10:29:31.372Z,1017.13
2018-11-04T10:30:31.653Z,1017.15
2018-11-04T10:31:31.375Z,1017.15
2018-11-04T10:32:31.177Z,1017.16
2018-11-04T10:33:31.125Z,1017.16
2018-11-04T10:34:31.059Z,1017.14
2018-11-04T10:35:31.098Z,1017.1
2018-11-04T10:36:31.220Z,1017.11
2018-11-04T10:37:31.130Z,1017.1
2018-11-04T10:38:31.162Z,1017.06
2018-11-04T10:39:31.206Z,1017.11
2018-11-04T10:40:31.228Z,1017.12
2018-11-04T10:41:31.035Z,1017.18
2018-11-04T10:42:31.122Z,1017.14
2018-11-04T10:43:30.973Z,1017.1
2018-11-04T10:44:31.224Z,1017.09
2018-11-04T10:45:31.102Z,1017.06
2018-11-04T10:46:31.359Z,1017.04
2018-11-04T10:47:31.117Z,1016.97
2018-11-04T10:48:31.153Z,1017.01
2018-11-04T10:49:31.643Z,1017
2018-11-04T10:50:31.563Z,1017.01
2018-11-04T10:51:31.291Z,1017
2018-11-04T10:52:31.087Z,1016.97
2018-11-04T10:53:31.237Z,1016.98
2018-11-04T10:54:31.038Z,1017
2018-11-04T10:55:31.321Z,1016.97
2018-11-04T10:56:30.954Z,1016.94
2018-11-04T10:57:31.179Z,1016.88
2018-11-04T10:58:31.371Z,1016.88
2018-11-04T10:59:31.031Z,1016.87
2018-11-04T11:00:31.163Z,1016.87
2018-11-04T11:01:31.353Z,1016.81
2018-11-04T11:02:31.094Z,1016.79
2018-11-04T11:03:30.961Z,1016.77
2018-11-04T11:04:31.548Z,1016.7
2018-11-04T11:05:31.346Z,1016.72
2018-11-04T11:06:31.156Z,1016.67
2018-11-04T11:07:31.194Z,1016.7
2018-11-04T11:08:30.974Z,1016.65
2018-11-04T11:09:30.979Z,1016.65
2018-11-04T11:10:31.206Z,1016.6
2018-11-04T11:11:30.996Z,1016.66
2018-11-04T11:12:31.295Z,1016.62
2018-11-04T11:13:31.472Z,1016.66
2018-11-04T11:14:31.458Z,1016.65
2018-11-04T11:15:31.399Z,1016.64
2018-11-04T11:16:31.057Z,1016.62
2018-11-04T11:17:31.528Z,1016.59
2018-11-04T11:18:31.310Z,1016.6
2018-11-04T11:19:32.038Z,1016.6
2018-11-04T11:20:31.667Z,1016.58
2018-11-04T11:21:31.393Z,1016.51
2018-11-04T11:22:31.491Z,1016.46
2018-11-04T11:23:32.127Z,1016.47
2018-11-04T11:24:31.452Z,1016.43
2018-11-04T11:25:31.780Z,1016.37
2018-11-04T11:26:31.381Z,1016.4
2018-11-04T11:27:31.366Z,1016.35
2018-11-04T11:28:31.515Z,1016.33
2018-11-04T11:29:31.189Z,1016.36
2018-11-04T11:30:31.409Z,1016.35
2018-11-04T11:31:31.208Z,1016.35
2018-11-04T11:32:31.430Z,1016.29
2018-11-04T11:33:31.600Z,1016.28
2018-11-04T11:34:31.170Z,1016.21
2018-11-04T11:35:32.205Z,1016.2
2018-11-04T11:36:31.107Z,1016.13
2018-11-04T11:37:31.814Z,1016.13
2018-11-04T11:38:31.792Z,1016.17
2018-11-04T11:39:31.330Z,1016.14
2018-11-04T11:40:31.483Z,1016.1
2018-11-04T11:41:31.568Z,1016.09
2018-11-04T11:42:31.448Z,1016.05
2018-11-04T11:43:31.565Z,1016.1
2018-11-04T11:44:31.656Z,1016.11
2018-11-04T11:45:31.551Z,1016.09
2018-11-04T11:46:31.171Z,1016.07
2018-11-04T11:47:31.582Z,1016.09
2018-11-04T11:48:31.507Z,1016.04
2018-11-04T11:49:31.811Z,1016
2018-11-04T11:50:31.346Z,1016
2018-11-04T11:51:31.290Z,1015.93
2018-11-04T11:52:31.961Z,1015.97
2018-11-04T11:53:31.537Z,1015.96
2018-11-04T11:54:31.555Z,1015.94
2018-11-04T11:55:31.331Z,1015.95
2018-11-04T11:56:31.177Z,1015.91
2018-11-04T11:57:32.075Z,1015.85
2018-11-04T11:58:33.633Z,1015.86
2018-11-04T11:59:30.993Z,1015.85
2018-11-04T12:00:31.249Z,1015.82
2018-11-04T12:01:31.275Z,1015.85
2018-11-04T12:02:31.073Z,1015.77
2018-11-04T12:03:31.187Z,1015.78
2018-11-04T12:04:31.309Z,1015.74
2018-11-04T12:05:31.318Z,1015.75
2018-11-04T12:06:31.332Z,1015.76
2018-11-04T12:07:31.434Z,1015.71
2018-11-04T12:08:31.429Z,1015.71